Terminal Aerodrome Forecast
Issued by NWS

Home | Current Version | Previous Version | Text Only | Print | Product List | Glossary On
Versions: 1 2 3 4 5 6 7 8 9 10 11 12
000
FTUS46 KLOX 151740
TAFSBP
TAF
KSBP 151740Z 1518/1618 VRB03KT P6SM SCT250
     FM152000 30010KT P6SM SCT250
     FM160200 32005KT P6SM SCT250
     FM160600 VRB03KT P6SM SCT250
     FM161100 33009KT P6SM SKC
     FM161500 33014KT P6SM SKC=

USA.gov is the U.S. government's official web portal to all federal, state and local government web resources and services.